Dundonald, United Kingdom
Current Conditions -  °F | °C
As of 7:20 PM on Tuesday 21 Oct 2014 (Local Time) from EGPK Reporting Station
Rain Showers Rain Showers  
Wind Chill: 39°   Ceiling: Unl
Heat Index: 48°   Visibility: 6mi
Dew Point: 37°   Wind: 32mph
Humidity: 66%   Direction: 300°WNW
Pressure: 29.88"   Gusts: NA
Location:  55.57°N, 4.58°W
Report Text: EGPK 211820Z 30028KT 9999 VCSH FEW012 FEW020CB 09/03 Q1012
Loading
Personal Weather Stations






























Interactive Weather Map
Tropical Storm Tracking
New forecast layout! Learn more

10-Day Weather Forecast

Advertisements
Track Severe Weather on mobile